createdAt,value
2017-08-05T00:00:36.691Z,20.34
2017-08-05T00:01:36.691Z,20.34
2017-08-05T00:02:36.696Z,20.37
2017-08-05T00:03:36.698Z,20.29
2017-08-05T00:04:36.406Z,20.31
2017-08-05T00:05:36.695Z,20.26
2017-08-05T00:06:36.710Z,20.19
2017-08-05T00:07:36.707Z,20.21
2017-08-05T00:08:36.720Z,20.21
2017-08-05T00:09:36.708Z,20.24
2017-08-05T00:10:36.415Z,20.14
2017-08-05T00:11:36.412Z,20.18
2017-08-05T00:12:36.722Z,20.18
2017-08-05T00:13:36.718Z,20.14
2017-08-05T00:14:36.766Z,20.14
2017-08-05T00:15:36.421Z,20.11
2017-08-05T00:16:36.722Z,20.16
2017-08-05T00:17:36.429Z,20.19
2017-08-05T00:18:36.427Z,20.25
2017-08-05T00:19:36.447Z,20.24
2017-08-05T00:20:36.738Z,20.21
2017-08-05T00:21:36.742Z,20.24
2017-08-05T00:22:36.758Z,20.13
2017-08-05T00:23:36.741Z,20.07
2017-08-05T00:24:36.452Z,20.19
2017-08-05T00:25:36.448Z,20.26
2017-08-05T00:26:36.757Z,20.29
2017-08-05T00:27:36.756Z,20.39
2017-08-05T00:28:36.756Z,20.34
2017-08-05T00:29:38.723Z,20.41
2017-08-05T00:30:36.775Z,20.5
2017-08-05T00:31:36.464Z,20.55
2017-08-05T00:32:36.827Z,20.51
2017-08-05T00:33:36.824Z,20.5
2017-08-05T00:34:36.943Z,20.52
2017-08-05T00:35:36.802Z,20.51
2017-08-05T00:36:36.910Z,20.58
2017-08-05T00:37:36.953Z,20.55
2017-08-05T00:38:36.793Z,20.52
2017-08-05T00:39:36.645Z,20.52
2017-08-05T00:40:36.789Z,20.56
2017-08-05T00:41:36.792Z,20.52
2017-08-05T00:42:36.845Z,20.55
2017-08-05T00:43:36.796Z,20.59
2017-08-05T00:44:36.516Z,20.55
2017-08-05T00:45:36.513Z,20.55
2017-08-05T00:46:36.801Z,20.5
2017-08-05T00:47:36.520Z,20.48
2017-08-05T00:48:36.505Z,20.44
2017-08-05T00:49:36.504Z,20.26
2017-08-05T00:50:36.808Z,20.28
2017-08-05T00:51:36.823Z,20.21
2017-08-05T00:52:36.822Z,20.11
2017-08-05T00:53:37.113Z,20.32
2017-08-05T00:54:36.523Z,20.29
2017-08-05T00:55:36.842Z,20.31
2017-08-05T00:56:36.836Z,20.26
2017-08-05T00:57:36.833Z,20.32
2017-08-05T00:58:36.838Z,20.29
2017-08-05T00:59:36.839Z,20.29
2017-08-05T01:00:36.841Z,20.32
2017-08-05T01:01:36.839Z,20.34
2017-08-05T01:02:36.849Z,20.32
2017-08-05T01:03:36.844Z,20.39
2017-08-05T01:04:36.849Z,20.37
2017-08-05T01:05:36.859Z,20.43
2017-08-05T01:06:36.862Z,20.31
2017-08-05T01:07:36.558Z,20.22
2017-08-05T01:08:36.888Z,20.07
2017-08-05T01:09:36.260Z,20.02
2017-08-05T01:10:36.561Z,20.06
2017-08-05T01:11:36.864Z,20.04
2017-08-05T01:12:36.885Z,20.07
2017-08-05T01:13:36.869Z,20.14
2017-08-05T01:14:36.584Z,20.29
2017-08-05T01:15:36.930Z,20.21
2017-08-05T01:16:36.887Z,20.25
2017-08-05T01:17:36.896Z,20.39
2017-08-05T01:18:36.893Z,20.26
2017-08-05T01:19:36.892Z,20.19
2017-08-05T01:20:36.915Z,20.19
2017-08-05T01:21:36.595Z,20.22
2017-08-05T01:22:36.592Z,20.24
2017-08-05T01:23:36.894Z,20.19
2017-08-05T01:24:36.905Z,20.19
2017-08-05T01:25:36.898Z,20.21
2017-08-05T01:26:36.899Z,20.04
2017-08-05T01:27:36.907Z,20.03
2017-08-05T01:28:36.910Z,20.13
2017-08-05T01:29:36.911Z,19.99
2017-08-05T01:30:37.259Z,20.04
2017-08-05T01:31:36.931Z,20.03
2017-08-05T01:32:36.913Z,20.02
2017-08-05T01:33:36.617Z,20.07
2017-08-05T01:34:36.944Z,20.07
2017-08-05T01:35:36.334Z,20.04
2017-08-05T01:36:36.931Z,19.95
2017-08-05T01:37:36.628Z,19.88
2017-08-05T01:38:36.930Z,19.84
2017-08-05T01:39:36.933Z,19.84
2017-08-05T01:40:36.955Z,19.86
2017-08-05T01:41:36.651Z,19.86
2017-08-05T01:42:36.636Z,19.77
2017-08-05T01:43:36.948Z,19.76
2017-08-05T01:44:36.945Z,19.7
2017-08-05T01:45:41.111Z,19.71
2017-08-05T01:46:36.958Z,19.84
2017-08-05T01:47:36.968Z,19.85
2017-08-05T01:48:36.963Z,19.82
2017-08-05T01:49:36.682Z,19.92
2017-08-05T01:50:36.981Z,20
2017-08-05T01:51:36.689Z,19.94
2017-08-05T01:52:36.659Z,20
2017-08-05T01:53:36.974Z,20.04
2017-08-05T01:54:36.679Z,20.09
2017-08-05T01:55:36.968Z,20.06
2017-08-05T01:56:36.971Z,20.04
2017-08-05T01:57:36.978Z,20.03
2017-08-05T01:58:36.974Z,19.99
2017-08-05T01:59:36.981Z,19.91
2017-08-05T02:00:41.703Z,19.81
2017-08-05T02:01:36.699Z,19.81
2017-08-05T02:02:36.697Z,19.84
2017-08-05T02:03:36.991Z,19.86
2017-08-05T02:04:36.995Z,19.84
2017-08-05T02:05:36.704Z,19.81
2017-08-05T02:06:37.039Z,19.74
2017-08-05T02:07:36.995Z,19.81
2017-08-05T02:08:37.006Z,19.82
2017-08-05T02:09:37.005Z,19.81
2017-08-05T02:10:36.706Z,19.76
2017-08-05T02:11:36.741Z,19.66
2017-08-05T02:12:37.013Z,19.54
2017-08-05T02:13:36.735Z,19.54
2017-08-05T02:14:37.018Z,19.48
2017-08-05T02:15:36.721Z,19.45
2017-08-05T02:16:37.019Z,19.48
2017-08-05T02:17:37.018Z,19.44
2017-08-05T02:18:37.024Z,19.4
2017-08-05T02:19:37.023Z,19.36
2017-08-05T02:20:36.758Z,19.29
2017-08-05T02:21:37.050Z,19.36
2017-08-05T02:22:37.051Z,19.26
2017-08-05T02:23:36.455Z,19.34
2017-08-05T02:24:37.048Z,19.31
2017-08-05T02:25:37.043Z,19.39
2017-08-05T02:26:37.045Z,19.45
2017-08-05T02:27:37.061Z,19.48
2017-08-05T02:28:36.754Z,19.48
2017-08-05T02:29:36.761Z,19.58
2017-08-05T02:30:37.055Z,19.66
2017-08-05T02:31:37.076Z,19.69
2017-08-05T02:32:37.067Z,19.71
2017-08-05T02:33:37.054Z,19.74
2017-08-05T02:34:37.060Z,19.69
2017-08-05T02:35:37.093Z,19.67
2017-08-05T02:36:37.062Z,19.84
2017-08-05T02:37:37.085Z,19.81
2017-08-05T02:38:37.069Z,19.69
2017-08-05T02:39:37.090Z,19.77
2017-08-05T02:40:37.089Z,19.76
2017-08-05T02:41:37.077Z,19.69
2017-08-05T02:42:36.778Z,19.64
2017-08-05T02:43:37.085Z,19.63
2017-08-05T02:44:36.788Z,19.71
2017-08-05T02:45:37.084Z,19.64
2017-08-05T02:46:37.134Z,19.62
2017-08-05T02:47:37.090Z,19.62
2017-08-05T02:48:36.812Z,19.67
2017-08-05T02:49:37.098Z,19.54
2017-08-05T02:50:37.103Z,19.54
2017-08-05T02:51:36.810Z,19.49
2017-08-05T02:52:36.807Z,19.59
2017-08-05T02:53:37.106Z,19.55
2017-08-05T02:54:37.105Z,19.54
2017-08-05T02:55:37.153Z,19.44
2017-08-05T02:56:37.118Z,19.45
2017-08-05T02:57:37.120Z,19.31
2017-08-05T02:58:37.131Z,19.39
2017-08-05T02:59:37.122Z,19.31
2017-08-05T03:00:37.130Z,19.24
2017-08-05T03:01:40.283Z,19.26
2017-08-05T03:02:37.119Z,19.19
2017-08-05T03:03:37.121Z,19.19
2017-08-05T03:04:37.123Z,19.18
2017-08-05T03:05:37.126Z,19.14
2017-08-05T03:06:37.134Z,19.14
2017-08-05T03:07:37.130Z,19.15
2017-08-05T03:08:37.130Z,19.09
2017-08-05T03:09:37.138Z,19.08
2017-08-05T03:10:37.142Z,19.11
2017-08-05T03:11:37.143Z,19
2017-08-05T03:12:37.140Z,19.04
2017-08-05T03:13:37.144Z,19.02
2017-08-05T03:14:37.148Z,19
2017-08-05T03:15:37.149Z,19.07
2017-08-05T03:16:37.703Z,19.09
2017-08-05T03:17:37.148Z,19.16
2017-08-05T03:18:36.856Z,19.11
2017-08-05T03:19:37.156Z,19.02
2017-08-05T03:20:36.857Z,19.07
2017-08-05T03:21:37.159Z,19.04
2017-08-05T03:22:37.174Z,19.08
2017-08-05T03:23:37.161Z,19.09
2017-08-05T03:24:37.168Z,18.99
2017-08-05T03:25:37.166Z,19.02
2017-08-05T03:26:37.172Z,18.99
2017-08-05T03:27:37.168Z,18.96
2017-08-05T03:28:36.876Z,18.99
2017-08-05T03:29:36.906Z,18.89
2017-08-05T03:30:37.187Z,18.92
2017-08-05T03:31:39.282Z,18.81
2017-08-05T03:32:36.876Z,18.86
2017-08-05T03:33:36.878Z,18.78
2017-08-05T03:34:36.886Z,18.84
2017-08-05T03:35:37.197Z,18.78
2017-08-05T03:36:37.189Z,18.89
2017-08-05T03:37:37.193Z,18.9
2017-08-05T03:38:37.193Z,18.98
2017-08-05T03:39:37.194Z,19.07
2017-08-05T03:40:37.203Z,19.07
2017-08-05T03:41:37.199Z,19.11
2017-08-05T03:42:36.897Z,19.14
2017-08-05T03:43:37.202Z,19.14
2017-08-05T03:44:37.209Z,19.21
2017-08-05T03:45:37.204Z,19.22
2017-08-05T03:46:37.209Z,19.27
2017-08-05T03:47:37.212Z,19.34
2017-08-05T03:48:37.215Z,19.3
2017-08-05T03:49:37.217Z,19.39
2017-08-05T03:50:36.921Z,19.31
2017-08-05T03:51:37.246Z,19.47
2017-08-05T03:52:36.937Z,19.4
2017-08-05T03:53:36.923Z,19.29
2017-08-05T03:54:37.226Z,19.31
2017-08-05T03:55:37.225Z,19.3
2017-08-05T03:56:37.233Z,19.26
2017-08-05T03:57:37.235Z,19.33
2017-08-05T03:58:37.234Z,19.22
2017-08-05T03:59:36.938Z,19.26
2017-08-05T04:00:37.237Z,19.19
2017-08-05T04:01:37.253Z,19.19
2017-08-05T04:02:37.252Z,19.16
2017-08-05T04:03:36.946Z,19.22
2017-08-05T04:04:37.255Z,19.21
2017-08-05T04:05:37.256Z,19.11
2017-08-05T04:06:37.255Z,19.16
2017-08-05T04:07:37.260Z,19.08
2017-08-05T04:08:37.261Z,19.18
2017-08-05T04:09:36.954Z,19.26
2017-08-05T04:10:37.259Z,19.33
2017-08-05T04:11:37.263Z,19.21
2017-08-05T04:12:37.268Z,19.24
2017-08-05T04:13:37.266Z,19.24
2017-08-05T04:14:37.271Z,19.33
2017-08-05T04:15:37.276Z,19.31
2017-08-05T04:16:37.273Z,19.34
2017-08-05T04:17:37.324Z,19.48
2017-08-05T04:18:37.288Z,19.41
2017-08-05T04:19:37.284Z,19.54
2017-08-05T04:20:36.989Z,19.56
2017-08-05T04:21:37.286Z,19.55
2017-08-05T04:22:37.291Z,19.69
2017-08-05T04:23:37.291Z,19.73
2017-08-05T04:24:36.991Z,19.69
2017-08-05T04:25:37.299Z,19.7
2017-08-05T04:26:37.297Z,19.69
2017-08-05T04:27:37.295Z,19.74
2017-08-05T04:28:37.303Z,19.74
2017-08-05T04:29:37.308Z,19.7
2017-08-05T04:30:37.013Z,19.71
2017-08-05T04:31:37.305Z,19.79
2017-08-05T04:32:38.014Z,19.71
2017-08-05T04:33:37.326Z,19.86
2017-08-05T04:34:37.325Z,19.82
2017-08-05T04:35:36.713Z,19.77
2017-08-05T04:36:37.362Z,19.89
2017-08-05T04:37:37.330Z,19.99
2017-08-05T04:38:37.333Z,20.06
2017-08-05T04:39:37.332Z,20.18
2017-08-05T04:40:37.340Z,20.21
2017-08-05T04:41:37.336Z,20.25
2017-08-05T04:42:37.335Z,20.41
2017-08-05T04:43:37.353Z,20.37
2017-08-05T04:44:37.343Z,20.43
2017-08-05T04:45:37.347Z,20.48
2017-08-05T04:46:37.045Z,20.52
2017-08-05T04:47:39.251Z,20.65
2017-08-05T04:48:37.049Z,20.82
2017-08-05T04:49:37.355Z,21.03
2017-08-05T04:50:37.360Z,21.22
2017-08-05T04:51:37.059Z,21.48
2017-08-05T04:52:37.063Z,21.64
2017-08-05T04:53:37.371Z,21.92
2017-08-05T04:54:37.374Z,22.11
2017-08-05T04:55:37.387Z,22.41
2017-08-05T04:56:37.383Z,22.65
2017-08-05T04:57:37.384Z,22.72
2017-08-05T04:58:37.389Z,22.8
2017-08-05T04:59:37.395Z,22.69
2017-08-05T05:00:37.401Z,22.45
2017-08-05T05:01:37.399Z,22.13
2017-08-05T05:02:37.770Z,21.89
2017-08-05T05:03:37.421Z,21.54
2017-08-05T05:04:37.423Z,21.35
2017-08-05T05:05:37.429Z,21.11
2017-08-05T05:06:37.423Z,21
2017-08-05T05:07:37.430Z,20.85
2017-08-05T05:08:37.130Z,20.84
2017-08-05T05:09:37.439Z,20.84
2017-08-05T05:10:37.440Z,20.85
2017-08-05T05:11:36.853Z,20.74
2017-08-05T05:12:37.442Z,20.74
2017-08-05T05:13:37.147Z,20.75
2017-08-05T05:14:37.454Z,20.69
2017-08-05T05:15:37.453Z,20.65
2017-08-05T05:16:37.155Z,20.62
2017-08-05T05:17:39.264Z,20.69
2017-08-05T05:18:37.160Z,20.66
2017-08-05T05:19:37.476Z,20.66
2017-08-05T05:20:37.476Z,20.75
2017-08-05T05:21:37.189Z,20.81
2017-08-05T05:22:37.493Z,20.9
2017-08-05T05:23:37.483Z,20.88
2017-08-05T05:24:37.196Z,20.96
2017-08-05T05:25:37.486Z,21.35
2017-08-05T05:26:37.501Z,21.48
2017-08-05T05:27:37.491Z,21.62
2017-08-05T05:28:37.501Z,21.58
2017-08-05T05:29:37.508Z,21.6
2017-08-05T05:30:37.507Z,21.69
2017-08-05T05:31:37.215Z,21.76
2017-08-05T05:32:37.515Z,21.64
2017-08-05T05:33:37.516Z,21.66
2017-08-05T05:34:37.519Z,21.69
2017-08-05T05:35:37.540Z,21.62
2017-08-05T05:36:37.232Z,21.58
2017-08-05T05:37:37.532Z,21.54
2017-08-05T05:38:37.536Z,21.54
2017-08-05T05:39:37.541Z,21.42
2017-08-05T05:40:37.541Z,21.46
2017-08-05T05:41:37.547Z,21.5
2017-08-05T05:42:37.549Z,21.48
2017-08-05T05:43:37.258Z,21.46
2017-08-05T05:44:37.563Z,21.46
2017-08-05T05:45:37.562Z,21.54
2017-08-05T05:46:37.568Z,21.42
2017-08-05T05:47:37.575Z,21.39
2017-08-05T05:48:37.580Z,21.39
2017-08-05T05:49:37.576Z,21.48
2017-08-05T05:50:37.279Z,21.5
2017-08-05T05:51:37.583Z,21.58
2017-08-05T05:52:37.289Z,21.61
2017-08-05T05:53:37.595Z,21.6
2017-08-05T05:54:37.600Z,21.73
2017-08-05T05:55:37.602Z,21.85
2017-08-05T05:56:37.608Z,21.95
2017-08-05T05:57:37.609Z,22.02
2017-08-05T05:58:37.612Z,22.07
2017-08-05T05:59:37.612Z,22.11
2017-08-05T06:00:37.621Z,22.28
2017-08-05T06:01:37.319Z,22.3
2017-08-05T06:02:37.634Z,22.35
2017-08-05T06:03:40.234Z,22.28
2017-08-05T06:04:37.650Z,22.33
2017-08-05T06:05:37.644Z,22.32
2017-08-05T06:06:37.640Z,22.35
2017-08-05T06:07:37.642Z,22.29
2017-08-05T06:08:37.651Z,22.29
2017-08-05T06:09:37.667Z,22.33
2017-08-05T06:10:37.669Z,22.23
2017-08-05T06:11:37.357Z,22.1
2017-08-05T06:12:37.669Z,21.96
2017-08-05T06:13:37.678Z,21.88
2017-08-05T06:14:37.677Z,21.76
2017-08-05T06:15:37.681Z,21.82
2017-08-05T06:16:37.383Z,21.77
2017-08-05T06:17:37.690Z,21.77
2017-08-05T06:18:37.737Z,21.82
2017-08-05T06:19:37.691Z,21.92
2017-08-05T06:20:37.393Z,22
2017-08-05T06:21:37.700Z,22
2017-08-05T06:22:37.401Z,22.1
2017-08-05T06:23:37.709Z,22.22
2017-08-05T06:24:37.710Z,22.26
2017-08-05T06:25:37.713Z,22.35
2017-08-05T06:26:37.714Z,22.41
2017-08-05T06:27:37.722Z,22.43
2017-08-05T06:28:37.726Z,22.55
2017-08-05T06:29:37.729Z,22.7
2017-08-05T06:30:37.754Z,23.08
2017-08-05T06:31:37.745Z,23.43
2017-08-05T06:32:37.745Z,23.73
2017-08-05T06:33:38.961Z,23.86
2017-08-05T06:34:37.750Z,23.98
2017-08-05T06:35:37.763Z,24.14
2017-08-05T06:36:37.465Z,24.18
2017-08-05T06:37:37.773Z,24.26
2017-08-05T06:38:37.775Z,24.3
2017-08-05T06:39:37.775Z,24.65
2017-08-05T06:40:37.779Z,24.7
2017-08-05T06:41:37.786Z,24.77
2017-08-05T06:42:37.790Z,24.61
2017-08-05T06:43:37.793Z,24.39
2017-08-05T06:44:37.498Z,24.11
2017-08-05T06:45:37.811Z,23.96
2017-08-05T06:46:37.805Z,23.87
2017-08-05T06:47:37.815Z,23.78
2017-08-05T06:48:41.144Z,23.95
2017-08-05T06:49:37.818Z,24.17
2017-08-05T06:50:37.835Z,24.58
2017-08-05T06:51:37.842Z,24.76
2017-08-05T06:52:37.838Z,25.01
2017-08-05T06:53:37.538Z,25.28
2017-08-05T06:54:37.855Z,25.47
2017-08-05T06:55:37.852Z,25.84
2017-08-05T06:56:37.865Z,26.33
2017-08-05T06:57:37.561Z,26.77
2017-08-05T06:58:37.887Z,27.27
2017-08-05T06:59:37.876Z,27.89
2017-08-05T07:00:37.888Z,28.19
2017-08-05T07:01:37.887Z,28.35
2017-08-05T07:02:37.598Z,28.62
2017-08-05T07:03:37.901Z,28.88
2017-08-05T07:04:37.905Z,29.13
2017-08-05T07:05:37.918Z,29.5
2017-08-05T07:06:37.340Z,29.68
2017-08-05T07:07:37.637Z,29.88
2017-08-05T07:08:37.943Z,30.13
2017-08-05T07:09:37.955Z,30.5
2017-08-05T07:10:37.956Z,30.78
2017-08-05T07:11:37.960Z,31.28
2017-08-05T07:12:37.673Z,31.58
2017-08-05T07:13:37.980Z,31.69
2017-08-05T07:14:37.685Z,31.51
2017-08-05T07:15:37.992Z,31.49
2017-08-05T07:16:37.406Z,31.44
2017-08-05T07:17:38.018Z,31.54
2017-08-05T07:18:38.018Z,31.85
2017-08-05T07:19:37.738Z,31.93
2017-08-05T07:20:38.043Z,32.11
2017-08-05T07:21:37.451Z,32.04
2017-08-05T07:22:38.060Z,32.22
2017-08-05T07:23:38.064Z,32.52
2017-08-05T07:24:37.773Z,32.78
2017-08-05T07:25:38.083Z,33.01
2017-08-05T07:26:38.099Z,32.73
2017-08-05T07:27:37.800Z,32.53
2017-08-05T07:28:38.140Z,31.78
2017-08-05T07:29:37.827Z,31.37
2017-08-05T07:30:38.141Z,30.69
2017-08-05T07:31:37.849Z,30.48
2017-08-05T07:32:37.849Z,30.28
2017-08-05T07:33:37.568Z,29.91
2017-08-05T07:34:39.420Z,29.79
2017-08-05T07:35:38.206Z,29.88
2017-08-05T07:36:37.887Z,29.94
2017-08-05T07:37:38.189Z,29.82
2017-08-05T07:38:38.203Z,30.15
2017-08-05T07:39:38.208Z,30.44
2017-08-05T07:40:37.927Z,30.81
2017-08-05T07:41:38.226Z,31.14
2017-08-05T07:42:38.245Z,31.51
2017-08-05T07:43:38.250Z,31.78
2017-08-05T07:44:38.257Z,31.94
2017-08-05T07:45:38.288Z,32.15
2017-08-05T07:46:38.283Z,32.59
2017-08-05T07:47:38.289Z,32.8
2017-08-05T07:48:38.289Z,33.05
2017-08-05T07:49:38.806Z,33.3
2017-08-05T07:50:38.320Z,33.61
2017-08-05T07:51:38.021Z,33.57
2017-08-05T07:52:38.033Z,33.47
2017-08-05T07:53:38.334Z,33.27
2017-08-05T07:54:38.053Z,33.05
2017-08-05T07:55:38.366Z,32.71
2017-08-05T07:56:38.381Z,32.49
2017-08-05T07:57:38.379Z,32.01
2017-08-05T07:58:38.384Z,31.49
2017-08-05T07:59:38.098Z,31.18
2017-08-05T08:00:38.103Z,31.25
2017-08-05T08:01:38.417Z,31.51
2017-08-05T08:02:38.444Z,31.85
2017-08-05T08:03:38.435Z,32.3
2017-08-05T08:04:44.300Z,32.53
2017-08-05T08:05:38.481Z,32.75
2017-08-05T08:06:38.159Z,33.08
2017-08-05T08:07:38.479Z,33.17
2017-08-05T08:08:38.184Z,33.4
2017-08-05T08:09:38.513Z,33.32
2017-08-05T08:10:38.191Z,33.24
2017-08-05T08:11:38.504Z,33.27
2017-08-05T08:12:38.518Z,33.39
2017-08-05T08:13:38.245Z,33.43
2017-08-05T08:14:38.239Z,33.58
2017-08-05T08:15:38.242Z,33.73
2017-08-05T08:16:38.572Z,33.52
2017-08-05T08:17:38.268Z,33.34
2017-08-05T08:18:38.574Z,33.04
2017-08-05T08:19:38.594Z,32.74
2017-08-05T08:20:38.489Z,32.03
2017-08-05T08:21:38.305Z,31.47
2017-08-05T08:22:38.621Z,31.05
2017-08-05T08:23:38.321Z,30.75
2017-08-05T08:24:38.341Z,30.37
2017-08-05T08:25:38.644Z,30.13
2017-08-05T08:26:38.349Z,29.9
2017-08-05T08:27:38.346Z,29.59
2017-08-05T08:28:38.672Z,29.08
2017-08-05T08:29:38.678Z,28.7
2017-08-05T08:30:38.681Z,28.45
2017-08-05T08:31:38.701Z,28.17
2017-08-05T08:32:38.399Z,28.07
2017-08-05T08:33:38.401Z,28.2
2017-08-05T08:34:38.408Z,28.67
2017-08-05T08:35:40.020Z,29.47
2017-08-05T08:36:38.715Z,29.97
2017-08-05T08:37:38.729Z,30.75
2017-08-05T08:38:38.433Z,31.31
2017-08-05T08:39:38.451Z,31.89
2017-08-05T08:40:38.466Z,32.3
2017-08-05T08:41:38.772Z,32.73
2017-08-05T08:42:38.778Z,32.7
2017-08-05T08:43:38.777Z,32.9
2017-08-05T08:44:38.809Z,33.09
2017-08-05T08:45:38.492Z,33.12
2017-08-05T08:46:38.204Z,33.11
2017-08-05T08:47:38.517Z,32.92
2017-08-05T08:48:38.817Z,32.53
2017-08-05T08:49:38.539Z,32.11
2017-08-05T08:50:42.542Z,31.64
2017-08-05T08:51:38.845Z,31.42
2017-08-05T08:52:38.857Z,31.31
2017-08-05T08:53:38.860Z,31.09
2017-08-05T08:54:38.908Z,30.87
2017-08-05T08:55:38.888Z,30.69
2017-08-05T08:56:38.881Z,30.46
2017-08-05T08:57:38.600Z,30.24
2017-08-05T08:58:38.918Z,29.97
2017-08-05T08:59:38.911Z,29.73
2017-08-05T09:00:38.920Z,29.51
2017-08-05T09:01:38.930Z,29.42
2017-08-05T09:02:38.930Z,29.41
2017-08-05T09:03:38.969Z,29.42
2017-08-05T09:04:38.666Z,29.38
2017-08-05T09:05:38.658Z,29.08
2017-08-05T09:06:38.656Z,28.94
2017-08-05T09:07:38.387Z,28.91
2017-08-05T09:08:38.673Z,28.96
2017-08-05T09:09:38.693Z,29.02
2017-08-05T09:10:38.693Z,29.16
2017-08-05T09:11:39.498Z,29.32
2017-08-05T09:12:39.007Z,29.39
2017-08-05T09:13:38.715Z,29.6
2017-08-05T09:14:38.733Z,29.81
2017-08-05T09:15:38.426Z,29.81
2017-08-05T09:16:39.837Z,29.66
2017-08-05T09:17:38.734Z,29.68
2017-08-05T09:18:39.062Z,29.79
2017-08-05T09:19:39.075Z,29.81
2017-08-05T09:20:39.062Z,29.88
2017-08-05T09:21:39.263Z,29.95
2017-08-05T09:22:39.095Z,29.84
2017-08-05T09:23:39.087Z,29.73
2017-08-05T09:24:39.124Z,29.87
2017-08-05T09:25:39.093Z,29.79
2017-08-05T09:26:39.117Z,29.79
2017-08-05T09:27:39.122Z,29.59
2017-08-05T09:28:39.121Z,29.35
2017-08-05T09:29:38.828Z,29.29
2017-08-05T09:30:38.833Z,29.27
2017-08-05T09:31:39.150Z,29.2
2017-08-05T09:32:39.145Z,29.27
2017-08-05T09:33:38.856Z,29.22
2017-08-05T09:34:38.864Z,29.27
2017-08-05T09:35:38.863Z,29.23
2017-08-05T09:36:40.425Z,29.29
2017-08-05T09:37:39.182Z,29.39
2017-08-05T09:38:39.183Z,29.44
2017-08-05T09:39:39.214Z,29.47
2017-08-05T09:40:39.209Z,29.6
2017-08-05T09:41:39.211Z,29.6
2017-08-05T09:42:39.213Z,29.63
2017-08-05T09:43:39.230Z,29.54
2017-08-05T09:44:39.249Z,29.44
2017-08-05T09:45:39.231Z,29.34
2017-08-05T09:46:39.267Z,29.29
2017-08-05T09:47:39.254Z,29.41
2017-08-05T09:48:39.277Z,29.51
2017-08-05T09:49:39.270Z,29.78
2017-08-05T09:50:38.968Z,29.94
2017-08-05T09:51:39.279Z,30.1
2017-08-05T09:52:39.289Z,30.46
2017-08-05T09:53:38.684Z,30.53
2017-08-05T09:54:38.993Z,30.65
2017-08-05T09:55:39.309Z,30.53
2017-08-05T09:56:39.011Z,30.5
2017-08-05T09:57:39.031Z,30.44
2017-08-05T09:58:39.347Z,30.5
2017-08-05T09:59:39.357Z,30.65
2017-08-05T10:00:39.424Z,30.66
2017-08-05T10:01:39.043Z,30.61
2017-08-05T10:02:39.358Z,30.72
2017-08-05T10:03:39.058Z,30.78
2017-08-05T10:04:39.390Z,30.91
2017-08-05T10:05:39.098Z,31.02
2017-08-05T10:06:39.402Z,30.96
2017-08-05T10:07:39.387Z,30.94
2017-08-05T10:08:39.108Z,30.96
2017-08-05T10:09:39.432Z,30.97
2017-08-05T10:10:39.133Z,30.94
2017-08-05T10:11:39.430Z,30.94
2017-08-05T10:12:39.483Z,30.88
2017-08-05T10:13:39.446Z,30.8
2017-08-05T10:14:39.442Z,30.63
2017-08-05T10:15:39.147Z,30.62
2017-08-05T10:16:39.454Z,30.63
2017-08-05T10:17:39.461Z,30.59
2017-08-05T10:18:39.179Z,30.73
2017-08-05T10:19:39.175Z,30.77
2017-08-05T10:20:39.497Z,30.78
2017-08-05T10:21:39.503Z,30.83
2017-08-05T10:22:39.570Z,30.9
2017-08-05T10:23:39.214Z,30.92
2017-08-05T10:24:39.240Z,30.91
2017-08-05T10:25:39.530Z,30.92
2017-08-05T10:26:39.534Z,30.99
2017-08-05T10:27:39.536Z,31
2017-08-05T10:28:39.540Z,31.06
2017-08-05T10:29:39.547Z,31.15
2017-08-05T10:30:38.954Z,31.24
2017-08-05T10:31:39.574Z,31.54
2017-08-05T10:32:39.571Z,31.65
2017-08-05T10:33:39.275Z,31.58
2017-08-05T10:34:39.588Z,31.47
2017-08-05T10:35:39.605Z,31.58
2017-08-05T10:36:39.604Z,31.65
2017-08-05T10:37:41.410Z,31.56
2017-08-05T10:38:39.619Z,31.4
2017-08-05T10:39:39.628Z,31.28
2017-08-05T10:40:39.631Z,31.06
2017-08-05T10:41:39.661Z,30.9
2017-08-05T10:42:39.642Z,30.81
2017-08-05T10:43:39.648Z,30.75
2017-08-05T10:44:39.357Z,30.73
2017-08-05T10:45:39.667Z,30.72
2017-08-05T10:46:39.670Z,30.7
2017-08-05T10:47:39.678Z,30.73
2017-08-05T10:48:39.688Z,30.88
2017-08-05T10:49:39.744Z,30.97
2017-08-05T10:50:39.711Z,30.84
2017-08-05T10:51:39.711Z,30.7
2017-08-05T10:52:39.874Z,30.73
2017-08-05T10:53:39.771Z,30.63
2017-08-05T10:54:39.742Z,30.65
2017-08-05T10:55:39.746Z,30.63
2017-08-05T10:56:39.746Z,30.61
2017-08-05T10:57:39.472Z,30.77
2017-08-05T10:58:39.761Z,30.88
2017-08-05T10:59:39.766Z,30.87
2017-08-05T11:00:39.810Z,30.83
2017-08-05T11:01:39.492Z,30.8
2017-08-05T11:02:39.805Z,30.75
2017-08-05T11:03:39.807Z,30.77
2017-08-05T11:04:39.209Z,30.65
2017-08-05T11:05:39.814Z,30.72
2017-08-05T11:06:39.546Z,30.97
2017-08-05T11:07:42.935Z,31.15
2017-08-05T11:08:39.569Z,31.17
2017-08-05T11:09:39.859Z,30.97
2017-08-05T11:10:39.549Z,30.92
2017-08-05T11:11:39.906Z,31.03
2017-08-05T11:12:39.581Z,31.12
2017-08-05T11:13:39.875Z,31.14
2017-08-05T11:14:39.879Z,31.2
2017-08-05T11:15:39.884Z,31.15
2017-08-05T11:16:39.936Z,31.05
2017-08-05T11:17:39.938Z,31.15
2017-08-05T11:18:39.632Z,31.29
2017-08-05T11:19:39.941Z,31.54
2017-08-05T11:20:39.951Z,31.49
2017-08-05T11:21:39.636Z,31.4
2017-08-05T11:22:39.643Z,31.73
2017-08-05T11:23:40.000Z,31.77
2017-08-05T11:24:39.958Z,31.76
2017-08-05T11:25:39.957Z,31.92
2017-08-05T11:26:39.664Z,31.97
2017-08-05T11:27:39.691Z,31.85
2017-08-05T11:28:40.014Z,31.92
2017-08-05T11:29:40.011Z,31.94
2017-08-05T11:30:39.710Z,31.8
2017-08-05T11:31:39.698Z,31.89
2017-08-05T11:32:39.717Z,31.87
2017-08-05T11:33:40.024Z,31.81
2017-08-05T11:34:40.032Z,31.87
2017-08-05T11:35:40.033Z,31.78
2017-08-05T11:36:40.052Z,31.87
2017-08-05T11:37:40.062Z,31.65
2017-08-05T11:38:41.965Z,31.42
2017-08-05T11:39:40.078Z,31.44
2017-08-05T11:40:39.785Z,31.34
2017-08-05T11:41:40.082Z,31.17
2017-08-05T11:42:39.792Z,31.22
2017-08-05T11:43:39.792Z,31.09
2017-08-05T11:44:40.109Z,30.94
2017-08-05T11:45:40.116Z,30.94
2017-08-05T11:46:40.114Z,30.99
2017-08-05T11:47:39.525Z,31.07
2017-08-05T11:48:40.938Z,31.09
2017-08-05T11:49:40.145Z,31.07
2017-08-05T11:50:39.848Z,30.92
2017-08-05T11:51:39.864Z,30.72
2017-08-05T11:52:40.320Z,30.63
2017-08-05T11:53:40.236Z,30.59
2017-08-05T11:54:39.884Z,30.51
2017-08-05T11:55:40.189Z,30.48
2017-08-05T11:56:40.195Z,30.46
2017-08-05T11:57:39.956Z,30.37
2017-08-05T11:58:39.602Z,30.43
2017-08-05T11:59:40.228Z,30.37
2017-08-05T12:00:40.232Z,30.37
2017-08-05T12:01:39.958Z,30.47
2017-08-05T12:02:39.952Z,30.57
2017-08-05T12:03:40.247Z,30.69
2017-08-05T12:04:39.651Z,30.88
2017-08-05T12:05:40.273Z,30.88
2017-08-05T12:06:40.271Z,30.92
2017-08-05T12:07:39.968Z,31.03
2017-08-05T12:08:42.077Z,31.2
2017-08-05T12:09:39.989Z,31.31
2017-08-05T12:10:40.315Z,31.59
2017-08-05T12:11:40.103Z,31.76
2017-08-05T12:12:40.312Z,31.74
2017-08-05T12:13:40.020Z,31.84
2017-08-05T12:14:39.719Z,31.71
2017-08-05T12:15:40.325Z,31.58
2017-08-05T12:16:40.028Z,31.46
2017-08-05T12:17:40.341Z,31.39
2017-08-05T12:18:40.061Z,31.43
2017-08-05T12:19:40.357Z,31.34
2017-08-05T12:20:40.360Z,31.07
2017-08-05T12:21:40.373Z,30.96
2017-08-05T12:22:40.081Z,30.85
2017-08-05T12:23:40.394Z,30.57
2017-08-05T12:24:40.394Z,30.53
2017-08-05T12:25:40.434Z,30.5
2017-08-05T12:26:40.394Z,30.48
2017-08-05T12:27:40.134Z,30.47
2017-08-05T12:28:40.432Z,30.51
2017-08-05T12:29:40.122Z,30.59
2017-08-05T12:30:40.438Z,30.59
2017-08-05T12:31:40.136Z,30.75
2017-08-05T12:32:40.453Z,31
2017-08-05T12:33:40.455Z,31.17
2017-08-05T12:34:39.891Z,31.36
2017-08-05T12:35:40.544Z,31.36
2017-08-05T12:36:40.570Z,31.37
2017-08-05T12:37:40.486Z,31.42
2017-08-05T12:38:40.496Z,31.42
2017-08-05T12:39:40.525Z,31.34
2017-08-05T12:40:40.525Z,31.14
2017-08-05T12:41:40.511Z,31.12
2017-08-05T12:42:40.524Z,31.09
2017-08-05T12:43:40.238Z,31.12
2017-08-05T12:44:40.539Z,31.27
2017-08-05T12:45:40.558Z,31.37
2017-08-05T12:46:40.560Z,31.42
2017-08-05T12:47:40.270Z,31.36
2017-08-05T12:48:40.573Z,31.34
2017-08-05T12:49:40.578Z,31.4
2017-08-05T12:50:39.984Z,31.47
2017-08-05T12:51:40.592Z,31.51
2017-08-05T12:52:40.283Z,31.74
2017-08-05T12:53:40.625Z,31.81
2017-08-05T12:54:40.310Z,31.81
2017-08-05T12:55:40.611Z,31.81